Tuesday, September 2, 2014, 2:49 PM EDT
Back to Local

KHWV, Shirley Brookhaven Airport

Location: Shirley, NY, United States Lat: 40.817
Local Time: 2:49 PM EDT (18:49 GMT) Lon: -72.867
Time Zone: US/Eastern Elev: 82 ft

Show me the last for .
Show Coded

Time T Td Feel RH Dir Speed Gust Alt SLP Vis Weather Sky Remarks
2014-09-02 13:56 85 73 92 67 180° 13 - 29.89 29.88 10 CLR 6-hr Min Temp (2pm): 75.9°F
6-hr Max Temp (2pm): 87.1°F
2014-09-02 12:56 86 74 94 67 180° 10 - 29.90 29.90 10 CLR None
2014-09-02 11:56 87 73 95 63 190° 9 - 29.92 29.92 10 CLR None
2014-09-02 10:56 86 75 95 69 210° 8 - 29.93 29.93 10 CLR None
2014-09-02 09:56 86 74 94 67 210° 8 - 29.94 29.94 10 FEW110 None
2014-09-02 08:56 80 75 86 84 190° 6 - 29.94 29.93 9 CLR None
2014-09-02 08:39 79 74 84 84 200° 7 - 29.94 - 9 SCT004 None
2014-09-02 08:07 77 74 82 90 200° 5 - 29.94 - 5 BR BKN003 None
2014-09-02 07:56 76 75 81 97 200° 6 - 29.94 29.93 5 BR SCT002 6-hr Min Temp (8am): 73.9°F
6-hr Max Temp (8am): 75.9°F
2014-09-02 07:40 76 74 81 93 190° 8 - 29.94 - 4 BR SCT002 None
2014-09-02 07:26 75 74 80 96 200° 3 - 29.94 - 3 BR BKN002 None
2014-09-02 07:14 75 74 80 96 220° 3 - 29.94 - 2 BR BKN002 None
2014-09-02 07:10 75 74 80 96 220° 3 - 29.94 - 3 BR SCT002 None
2014-09-02 06:56 75 73 79 93 210° 3 - 29.93 29.93 4 BR CLR None
2014-09-02 05:56 74 73 78 97 220° 3 - 29.91 29.90 5 BR CLR None
2014-09-02 05:22 75 73 79 93 200° 3 - 29.91 - 5 BR SCT002 None
2014-09-02 04:56 75 73 79 93 210° 3 - 29.91 29.91 4 BR OVC002 None
2014-09-02 04:16 75 73 79 93 210° 3 - 29.91 - 3 BR BKN002 None
2014-09-02 03:56 74 73 78 97 190° 7 - 29.92 29.91 5 BR SCT002 SCT070 None
2014-09-02 03:10 75 73 79 93 190° 8 - 29.93 - 4 BR BKN002 None
2014-09-02 01:56 75 73 79 93 210° 3 - 29.94 29.93 6 BR CLR 6-hr Min Temp (2am): 75.0°F
6-hr Max Temp (2am): 75.9°F
2014-09-02 00:56 76 73 80 90 190° 6 - 29.95 29.95 10 BKN080 24-hr Min Temp (1am): 73.9°F
24-hr Max Temp (1am): 86.0°F
2014-09-01 23:56 76 73 80 90 200° 5 - 29.96 29.96 10 BKN080 None
2014-09-01 22:56 75 73 79 93 200° 5 - 29.97 29.97 8 CLR None
2014-09-01 21:56 76 73 80 90 200° 6 - 29.96 29.96 8 CLR None
2014-09-01 20:56 76 73 80 90 200° 7 - 29.97 29.97 9 CLR None
2014-09-01 19:56 76 71 80 84 210° 7 - 29.97 29.96 10 CLR 6-hr Min Temp (8pm): 75.9°F
6-hr Max Temp (8pm): 86.0°F
2014-09-01 17:56 80 70 84 71 210° 10 - 29.95 29.95 10 SCT090 None
2014-09-01 16:56 83 70 87 65 210° 10 - 29.95 29.95 10 CLR None
2014-09-01 15:56 83 71 88 67 190° 10 - 29.96 29.95 10 OVC085 None
2014-09-01 14:56 86 71 92 61 210° 9 - 29.97 29.96 10 CLR None

Support USWX by starting your Amazon purchase here.